createdAt,value
2023-01-13T00:00:01.587Z,32.25
2023-01-13T00:02:28.462Z,34.80
2023-01-13T00:04:55.515Z,38.58
2023-01-13T00:07:22.733Z,38.78
2023-01-13T00:09:49.430Z,28.48
2023-01-13T00:12:16.175Z,41.63
2023-01-13T00:14:42.838Z,23.70
2023-01-13T00:17:09.477Z,33.63
2023-01-13T00:19:36.131Z,35.58
2023-01-13T00:22:02.820Z,27.58
2023-01-13T00:24:29.495Z,26.35
2023-01-13T00:26:56.165Z,31.55
2023-01-13T00:29:22.849Z,45.38
2023-01-13T00:31:50.337Z,36.92
2023-01-13T00:34:17.008Z,38.22
2023-01-13T00:36:43.725Z,45.75
2023-01-13T00:39:10.485Z,33.30
2023-01-13T00:42:09.682Z,33.85
2023-01-13T00:44:36.334Z,45.00
2023-01-13T00:47:03.021Z,26.48
2023-01-13T00:49:29.680Z,40.33
2023-01-13T00:51:58.980Z,32.22
2023-01-13T00:54:25.813Z,35.20
2023-01-13T00:56:52.440Z,36.17
2023-01-13T00:59:19.111Z,34.75
2023-01-13T01:01:45.991Z,32.00
2023-01-13T01:04:12.798Z,36.13
2023-01-13T01:06:39.607Z,30.00
2023-01-13T01:09:06.529Z,28.60
2023-01-13T01:11:34.521Z,30.65
2023-01-13T01:14:03.290Z,25.15
2023-01-13T01:16:32.792Z,26.00
2023-01-13T01:19:00.752Z,36.15
2023-01-13T01:21:28.848Z,29.48
2023-01-13T01:23:55.628Z,29.40
2023-01-13T01:26:25.448Z,32.65
2023-01-13T01:28:52.952Z,28.17
2023-01-13T01:31:22.768Z,33.60
2023-01-13T01:33:50.493Z,28.83
2023-01-13T01:36:19.185Z,33.20
2023-01-13T01:38:46.008Z,37.65
2023-01-13T01:41:15.556Z,31.83
2023-01-13T01:44:06.618Z,34.45
2023-01-13T01:46:42.366Z,28.42
2023-01-13T01:49:12.405Z,44.30
2023-01-13T01:51:45.631Z,29.60
2023-01-13T01:54:16.828Z,35.97
2023-01-13T01:56:45.266Z,35.15
2023-01-13T01:59:12.653Z,40.42
2023-01-13T02:01:41.350Z,39.00
2023-01-13T02:04:19.294Z,40.08
2023-01-13T02:06:46.619Z,38.00
2023-01-13T02:09:14.103Z,32.85
2023-01-13T02:11:59.465Z,36.33
2023-01-13T02:14:28.920Z,33.47
2023-01-13T02:17:16.325Z,44.85
2023-01-13T02:20:05.020Z,37.90
2023-01-13T02:22:31.626Z,44.83
2023-01-13T02:25:31.740Z,30.40
2023-01-13T02:28:17.297Z,39.92
2023-01-13T02:31:12.430Z,24.05
2023-01-13T02:34:02.172Z,24.10
2023-01-13T02:36:43.292Z,36.53
2023-01-13T02:39:42.947Z,35.33
2023-01-13T02:42:37.172Z,43.88
2023-01-13T02:45:11.408Z,34.40
2023-01-13T02:47:41.277Z,27.80
2023-01-13T02:50:15.080Z,32.60
2023-01-13T02:52:52.611Z,33.85
2023-01-13T02:55:25.858Z,35.05
2023-01-13T02:57:54.568Z,33.03
2023-01-13T03:00:23.249Z,30.17
2023-01-13T03:02:49.955Z,44.22
2023-01-13T03:05:17.425Z,32.30
2023-01-13T03:08:02.043Z,37.75
2023-01-13T03:10:37.876Z,38.03
2023-01-13T03:13:19.435Z,33.22
2023-01-13T03:15:58.494Z,33.53
2023-01-13T03:18:56.902Z,32.60
2023-01-13T03:21:39.488Z,27.60
2023-01-13T03:24:21.275Z,37.47
2023-01-13T03:26:58.798Z,29.45
2023-01-13T03:29:36.265Z,35.15
2023-01-13T03:32:33.962Z,34.63
2023-01-13T03:35:19.270Z,26.77
2023-01-13T03:37:54.241Z,30.52
2023-01-13T03:40:28.863Z,31.05
2023-01-13T03:43:28.708Z,36.80
2023-01-13T03:46:02.947Z,27.98
2023-01-13T03:48:32.795Z,30.05
2023-01-13T03:51:11.056Z,28.63
2023-01-13T03:53:49.972Z,24.58
2023-01-13T03:56:26.835Z,30.10
2023-01-13T03:58:54.414Z,30.88
2023-01-13T04:01:33.241Z,25.83
2023-01-13T04:04:22.006Z,31.50
2023-01-13T04:07:13.768Z,25.95
2023-01-13T04:09:54.527Z,31.13
2023-01-13T04:12:48.832Z,20.88
2023-01-13T04:15:21.937Z,24.45
2023-01-13T04:17:49.682Z,17.20
2023-01-13T04:20:16.878Z,25.58
2023-01-13T04:22:43.736Z,20.27
2023-01-13T04:25:11.380Z,16.80
2023-01-13T04:27:38.127Z,19.52
2023-01-13T04:30:05.820Z,20.08
2023-01-13T04:32:35.524Z,11.90
2023-01-13T04:35:02.191Z,10.82
2023-01-13T04:37:29.069Z,13.80
2023-01-13T04:39:55.867Z,10.48
2023-01-13T04:42:22.511Z,15.02
2023-01-13T04:44:49.407Z,13.48
2023-01-13T04:47:16.058Z,13.65
2023-01-13T04:49:42.711Z,11.35
2023-01-13T04:52:09.500Z,7.72
2023-01-13T04:54:36.269Z,12.40
2023-01-13T04:57:02.969Z,12.75
2023-01-13T04:59:29.710Z,9.35
2023-01-13T05:01:56.509Z,7.88
2023-01-13T05:04:23.289Z,14.50
2023-01-13T05:06:50.087Z,10.60
2023-01-13T05:09:16.890Z,13.63
2023-01-13T05:12:02.330Z,12.30
2023-01-13T05:14:47.452Z,8.40
2023-01-13T05:17:21.034Z,15.48
2023-01-13T05:19:47.813Z,8.73
2023-01-13T05:22:33.081Z,21.77
2023-01-13T05:25:21.591Z,10.38
2023-01-13T05:27:56.318Z,17.90
2023-01-13T05:30:25.632Z,15.90
2023-01-13T05:32:52.381Z,18.13
2023-01-13T05:35:19.501Z,14.20
2023-01-13T05:37:47.241Z,15.73
2023-01-13T05:40:35.441Z,19.83
2023-01-13T05:43:26.229Z,19.83
2023-01-13T05:46:00.317Z,14.57
2023-01-13T05:48:33.255Z,12.57
2023-01-13T05:51:00.719Z,22.38
2023-01-13T05:53:27.555Z,23.63
2023-01-13T05:55:54.525Z,25.30
2023-01-13T05:58:23.373Z,15.80
2023-01-13T06:00:50.612Z,17.23
2023-01-13T06:03:19.981Z,21.88
2023-01-13T06:05:48.853Z,16.17
2023-01-13T06:08:15.633Z,19.17
2023-01-13T06:10:42.321Z,15.10
2023-01-13T06:13:09.119Z,14.70
2023-01-13T06:15:35.820Z,21.33
2023-01-13T06:18:04.335Z,21.98
2023-01-13T06:20:31.592Z,18.90
2023-01-13T06:22:59.495Z,20.40
2023-01-13T06:25:36.600Z,19.15
2023-01-13T06:28:03.811Z,18.27
2023-01-13T06:30:39.793Z,20.35
2023-01-13T06:33:11.055Z,22.75
2023-01-13T06:35:39.471Z,16.27
2023-01-13T06:38:11.443Z,24.60
2023-01-13T06:40:38.462Z,22.48
2023-01-13T06:43:17.398Z,17.60
2023-01-13T06:45:51.672Z,21.95
2023-01-13T06:48:24.348Z,17.08
2023-01-13T06:53:18.163Z,14.35
2023-01-13T06:55:44.962Z,23.30
2023-01-13T06:58:12.042Z,21.65
2023-01-13T07:00:38.823Z,16.73
2023-01-13T07:03:13.797Z,18.08
2023-01-13T07:05:41.842Z,20.20
2023-01-13T07:08:10.119Z,22.52
2023-01-13T07:10:37.582Z,16.13
2023-01-13T07:13:23.629Z,24.83
2023-01-13T07:15:58.618Z,28.50
2023-01-13T07:18:31.674Z,19.75
2023-01-13T07:21:03.614Z,29.80
2023-01-13T07:23:32.441Z,20.50
2023-01-13T07:26:00.234Z,21.60
2023-01-13T07:28:28.264Z,17.45
2023-01-13T07:30:55.340Z,15.75
2023-01-13T07:33:22.437Z,17.90
2023-01-13T07:35:55.284Z,19.20
2023-01-13T07:38:21.989Z,22.00
2023-01-13T07:40:48.704Z,21.50
2023-01-13T07:43:33.836Z,23.95
2023-01-13T07:46:06.037Z,13.63
2023-01-13T07:48:34.619Z,20.63
2023-01-13T07:51:06.675Z,19.90
2023-01-13T07:53:34.216Z,24.40
2023-01-13T07:56:01.766Z,18.42
2023-01-13T07:58:29.202Z,25.77
2023-01-13T08:00:56.784Z,21.20
2023-01-13T08:03:24.099Z,19.55
2023-01-13T08:05:51.124Z,21.63
2023-01-13T08:08:18.345Z,38.85
2023-01-13T08:10:45.187Z,23.63
2023-01-13T08:13:22.304Z,25.33
2023-01-13T08:15:51.697Z,23.13
2023-01-13T08:18:22.022Z,18.27
2023-01-13T08:20:49.841Z,22.95
2023-01-13T08:23:17.549Z,26.02
2023-01-13T08:25:44.779Z,23.05
2023-01-13T08:28:12.916Z,25.70
2023-01-13T08:30:39.860Z,18.40
2023-01-13T08:33:08.809Z,23.30
2023-01-13T08:35:40.211Z,15.75
2023-01-13T08:38:08.004Z,20.90
2023-01-13T08:40:35.049Z,18.35
2023-01-13T08:43:01.915Z,18.45
2023-01-13T08:45:31.665Z,24.45
2023-01-13T08:47:58.529Z,20.13
2023-01-13T08:50:25.381Z,21.45
2023-01-13T08:52:52.194Z,17.58
2023-01-13T08:55:19.369Z,22.60
2023-01-13T08:57:46.345Z,24.73
2023-01-13T09:00:13.767Z,20.05
2023-01-13T09:02:40.584Z,25.25
2023-01-13T09:05:11.897Z,29.00
2023-01-13T09:07:39.453Z,35.47
2023-01-13T09:10:08.457Z,27.83
2023-01-13T09:12:54.009Z,33.53
2023-01-13T09:15:21.723Z,31.75
2023-01-13T09:17:48.525Z,27.83
2023-01-13T09:20:15.475Z,26.15
2023-01-13T09:22:42.352Z,24.13
2023-01-13T09:25:09.589Z,19.33
2023-01-13T09:27:36.428Z,22.25
2023-01-13T09:30:03.811Z,26.67
2023-01-13T09:32:30.576Z,22.00
2023-01-13T09:35:00.347Z,27.58
2023-01-13T09:37:37.880Z,22.45
2023-01-13T09:40:22.533Z,12.80
2023-01-13T09:43:24.152Z,24.98
2023-01-13T09:46:02.211Z,23.63
2023-01-13T09:48:52.315Z,12.05
2023-01-13T09:51:30.399Z,22.58
2023-01-13T09:54:20.145Z,25.38
2023-01-13T09:56:47.137Z,25.17
2023-01-13T09:59:16.161Z,22.65
2023-01-13T10:01:52.620Z,21.63
2023-01-13T10:04:19.470Z,16.35
2023-01-13T10:06:56.142Z,23.08
2023-01-13T10:09:30.277Z,17.35
2023-01-13T10:12:18.591Z,14.70
2023-01-13T10:14:55.373Z,25.83
2023-01-13T10:17:44.305Z,15.27
2023-01-13T10:20:33.769Z,21.45
2023-01-13T10:23:26.664Z,19.70
2023-01-13T10:26:26.872Z,15.20
2023-01-13T10:28:55.642Z,17.38
2023-01-13T10:31:23.636Z,23.92
2023-01-13T10:34:01.425Z,28.48
2023-01-13T10:36:28.316Z,20.17
2023-01-13T10:39:14.700Z,28.90
2023-01-13T10:41:41.525Z,23.50
2023-01-13T10:44:18.626Z,26.55
2023-01-13T10:46:56.397Z,22.05
2023-01-13T10:49:39.046Z,22.98
2023-01-13T10:52:27.381Z,18.25
2023-01-13T10:54:55.531Z,23.25
2023-01-13T10:57:27.597Z,22.70
2023-01-13T10:59:55.259Z,24.90
2023-01-13T11:02:30.625Z,18.45
2023-01-13T11:04:58.088Z,27.10
2023-01-13T11:07:50.509Z,20.20
2023-01-13T11:10:17.386Z,19.80
2023-01-13T11:13:05.615Z,27.58
2023-01-13T11:16:02.118Z,19.27
2023-01-13T11:18:35.830Z,16.17
2023-01-13T11:21:07.977Z,23.30
2023-01-13T11:23:40.219Z,20.85
2023-01-13T11:26:20.735Z,11.80
2023-01-13T11:29:00.356Z,22.60
2023-01-13T11:32:01.677Z,23.30
2023-01-13T11:34:38.703Z,15.38
2023-01-13T11:37:15.761Z,19.77
2023-01-13T11:39:47.410Z,15.25
2023-01-13T11:42:36.715Z,18.98
2023-01-13T11:45:18.661Z,11.13
2023-01-13T11:47:53.855Z,11.85
2023-01-13T11:51:07.886Z,13.75
2023-01-13T11:53:58.806Z,13.25
2023-01-13T11:57:06.148Z,15.20
2023-01-13T11:59:59.533Z,11.90
2023-01-13T12:02:35.289Z,16.38
2023-01-13T12:05:19.008Z,18.77
2023-01-13T12:07:51.253Z,22.23
2023-01-13T12:10:35.388Z,15.73
2023-01-13T12:13:26.932Z,13.13
2023-01-13T12:16:04.358Z,21.80
2023-01-13T12:18:31.024Z,23.73
2023-01-13T12:21:12.600Z,21.40
2023-01-13T12:24:02.653Z,21.15
2023-01-13T12:26:34.453Z,17.95
2023-01-13T12:29:20.272Z,17.40
2023-01-13T12:31:51.633Z,15.02
2023-01-13T12:34:40.254Z,16.95
2023-01-13T12:37:27.719Z,18.48
2023-01-13T12:40:00.034Z,13.75
2023-01-13T12:43:07.228Z,17.23
2023-01-13T12:45:34.274Z,18.80
2023-01-13T12:48:01.576Z,15.82
2023-01-13T12:50:29.300Z,13.60
2023-01-13T12:52:59.187Z,16.48
2023-01-13T12:55:28.240Z,17.90
2023-01-13T12:58:04.349Z,12.55
2023-01-13T13:00:40.145Z,14.27
2023-01-13T13:03:12.753Z,11.68
2023-01-13T13:08:44.383Z,9.43
2023-01-13T13:11:32.605Z,9.48
2023-01-13T13:14:06.225Z,12.32
2023-01-13T13:16:37.043Z,10.73
2023-01-13T13:19:20.005Z,14.48
2023-01-13T13:22:14.559Z,13.15
2023-01-13T13:24:51.084Z,13.73
2023-01-13T13:27:40.543Z,13.73
2023-01-13T13:30:25.170Z,7.97
2023-01-13T13:33:29.021Z,9.25
2023-01-13T13:36:20.731Z,19.30
2023-01-13T13:39:40.282Z,14.75
2023-01-13T13:42:32.896Z,12.13
2023-01-13T13:45:20.296Z,17.50
2023-01-13T13:47:47.459Z,11.45
2023-01-13T13:50:20.430Z,13.65
2023-01-13T13:53:06.324Z,12.48
2023-01-13T13:55:33.316Z,14.30
2023-01-13T13:58:01.614Z,10.30
2023-01-13T14:00:35.058Z,7.43
2023-01-13T14:03:05.901Z,14.00
2023-01-13T14:05:34.763Z,16.00
2023-01-13T14:08:16.543Z,16.58
2023-01-13T14:10:45.593Z,12.13
2023-01-13T14:13:20.530Z,20.73
2023-01-13T14:15:50.214Z,12.38
2023-01-13T14:18:21.657Z,11.32
2023-01-13T14:21:18.386Z,13.75
2023-01-13T14:24:01.726Z,13.73
2023-01-13T14:26:32.175Z,16.77
2023-01-13T14:29:01.356Z,13.60
2023-01-13T14:31:29.290Z,21.20
2023-01-13T14:33:58.509Z,21.20
2023-01-13T14:36:36.850Z,11.82
2023-01-13T14:39:03.534Z,22.08
2023-01-13T14:41:35.942Z,19.45
2023-01-13T14:44:28.668Z,16.05
2023-01-13T14:46:58.256Z,16.17
2023-01-13T14:49:37.379Z,10.35
2023-01-13T14:52:10.210Z,17.15
2023-01-13T14:54:53.685Z,16.42
2023-01-13T14:57:33.788Z,16.40
2023-01-13T15:00:16.073Z,15.07
2023-01-13T15:02:44.041Z,17.50
2023-01-13T15:05:16.992Z,15.27
2023-01-13T15:08:17.220Z,10.80
2023-01-13T15:11:04.575Z,11.68
2023-01-13T15:13:48.454Z,15.43
2023-01-13T15:16:25.708Z,11.60
2023-01-13T15:21:19.997Z,18.05
2023-01-13T15:23:47.460Z,10.45
2023-01-13T15:26:26.198Z,16.02
2023-01-13T15:28:56.207Z,19.25
2023-01-13T15:31:24.244Z,12.65
2023-01-13T15:33:51.525Z,20.15
2023-01-13T15:36:28.573Z,18.80
2023-01-13T15:38:56.343Z,6.63
2023-01-13T15:41:42.375Z,17.85
2023-01-13T15:44:37.745Z,18.70
2023-01-13T15:47:09.449Z,14.77
2023-01-13T15:49:46.477Z,15.00
2023-01-13T15:52:27.656Z,13.35
2023-01-13T15:54:55.014Z,13.20
2023-01-13T15:57:30.640Z,20.13
2023-01-13T16:00:00.780Z,10.35
2023-01-13T16:02:27.564Z,15.70
2023-01-13T16:04:54.772Z,19.75
2023-01-13T16:07:23.597Z,14.20
2023-01-13T16:09:50.451Z,18.15
2023-01-13T16:12:17.215Z,19.55
2023-01-13T16:14:44.060Z,10.65
2023-01-13T16:17:22.139Z,12.65
2023-01-13T16:19:49.443Z,14.80
2023-01-13T16:22:16.930Z,18.42
2023-01-13T16:24:43.882Z,14.27
2023-01-13T16:27:17.672Z,17.23
2023-01-13T16:29:45.784Z,13.10
2023-01-13T16:32:13.091Z,24.10
2023-01-13T16:34:40.004Z,17.80
2023-01-13T16:37:31.797Z,20.13
2023-01-13T16:39:58.695Z,17.40
2023-01-13T16:42:25.506Z,13.45
2023-01-13T16:44:52.906Z,19.77
2023-01-13T16:47:20.213Z,17.30
2023-01-13T16:49:53.176Z,8.35
2023-01-13T16:52:20.127Z,13.18
2023-01-13T16:54:46.931Z,11.73
2023-01-13T16:57:14.347Z,16.08
2023-01-13T16:59:41.356Z,16.60
2023-01-13T17:02:15.880Z,17.08
2023-01-13T17:04:43.553Z,18.27
2023-01-13T17:07:15.072Z,15.02
2023-01-13T17:09:42.012Z,11.43
2023-01-13T17:12:09.992Z,17.63
2023-01-13T17:14:36.707Z,11.38
2023-01-13T17:17:03.549Z,6.68
2023-01-13T17:19:30.642Z,8.18
2023-01-13T17:21:58.147Z,9.63
2023-01-13T17:24:25.819Z,6.82
2023-01-13T17:26:52.696Z,5.90
2023-01-13T17:29:22.551Z,3.58
2023-01-13T17:31:51.003Z,5.18
2023-01-13T17:34:23.513Z,8.55
2023-01-13T17:36:50.366Z,3.97
2023-01-13T17:39:23.607Z,4.25
2023-01-13T17:41:51.156Z,3.15
2023-01-13T17:47:00.309Z,5.40
2023-01-13T17:49:27.029Z,2.50
2023-01-13T17:51:53.955Z,2.10
2023-01-13T17:54:21.515Z,5.82
2023-01-13T17:56:48.241Z,3.85
2023-01-13T17:59:17.361Z,2.17
2023-01-13T18:01:44.876Z,5.72
2023-01-13T18:04:20.068Z,4.43
2023-01-13T18:06:47.038Z,8.55
2023-01-13T18:09:14.276Z,6.50
2023-01-13T18:11:41.548Z,11.65
2023-01-13T18:14:09.880Z,8.63
2023-01-13T18:16:37.567Z,8.55
2023-01-13T18:19:22.900Z,7.20
2023-01-13T18:22:08.352Z,8.93
2023-01-13T18:24:53.990Z,10.52
2023-01-13T18:27:33.510Z,12.13
2023-01-13T18:30:02.353Z,9.30
2023-01-13T18:32:33.033Z,10.80
2023-01-13T18:35:07.077Z,6.32
2023-01-13T18:37:42.376Z,10.85
2023-01-13T18:40:11.598Z,12.45
2023-01-13T18:42:55.062Z,9.43
2023-01-13T18:45:30.415Z,13.98
2023-01-13T18:47:59.646Z,9.15
2023-01-13T18:50:27.099Z,11.40
2023-01-13T18:52:54.253Z,10.10
2023-01-13T18:55:22.017Z,9.20
2023-01-13T18:57:49.285Z,6.40
2023-01-13T19:03:29.943Z,6.90
2023-01-13T19:06:07.579Z,8.05
2023-01-13T19:08:34.585Z,10.25
2023-01-13T19:11:06.506Z,7.00
2023-01-13T19:13:36.138Z,7.40
2023-01-13T19:16:07.130Z,6.78
2023-01-13T19:18:35.134Z,8.27
2023-01-13T19:21:06.165Z,4.85
2023-01-13T19:23:33.587Z,8.20
2023-01-13T19:26:05.034Z,10.05
2023-01-13T19:28:32.591Z,10.50
2023-01-13T19:31:01.405Z,11.30
2023-01-13T19:33:31.548Z,11.38
2023-01-13T19:35:58.893Z,9.90
2023-01-13T19:38:27.312Z,10.27
2023-01-13T19:40:56.319Z,7.40
2023-01-13T19:43:42.359Z,7.88
2023-01-13T19:46:09.995Z,9.27
2023-01-13T19:48:37.221Z,11.98
2023-01-13T19:51:04.318Z,12.10
2023-01-13T19:53:32.406Z,10.95
2023-01-13T19:55:59.591Z,16.33
2023-01-13T19:58:26.807Z,9.82
2023-01-13T20:00:54.148Z,8.52
2023-01-13T20:03:24.337Z,7.75
2023-01-13T20:05:51.951Z,5.47
2023-01-13T20:08:22.414Z,6.35
2023-01-13T20:10:49.674Z,8.98
2023-01-13T20:13:16.835Z,14.70
2023-01-13T20:15:43.990Z,9.07
2023-01-13T20:18:11.010Z,9.00
2023-01-13T20:20:37.878Z,6.28
2023-01-13T20:23:05.047Z,5.93
2023-01-13T20:25:31.978Z,6.05
2023-01-13T20:28:01.225Z,3.00
2023-01-13T20:30:27.983Z,5.05
2023-01-13T20:32:54.926Z,8.07
2023-01-13T20:35:21.788Z,5.28
2023-01-13T20:37:48.506Z,4.05
2023-01-13T20:40:16.197Z,10.52
2023-01-13T20:42:45.058Z,6.82
2023-01-13T20:48:08.756Z,11.23
2023-01-13T20:50:35.467Z,10.60
2023-01-13T20:53:02.228Z,9.63
2023-01-13T20:55:29.150Z,7.97
2023-01-13T20:57:55.911Z,9.55
2023-01-13T21:00:22.648Z,9.90
2023-01-13T21:02:49.520Z,11.57
2023-01-13T21:05:16.425Z,11.07
2023-01-13T21:07:43.360Z,14.07
2023-01-13T21:10:11.460Z,15.10
2023-01-13T21:12:57.028Z,10.77
2023-01-13T21:15:25.679Z,16.05
2023-01-13T21:18:11.237Z,9.80
2023-01-13T21:20:39.063Z,17.00
2023-01-13T21:23:06.431Z,11.35
2023-01-13T21:25:35.417Z,9.40
2023-01-13T21:28:05.927Z,15.88
2023-01-13T21:30:33.645Z,11.75
2023-01-13T21:33:00.887Z,18.33
2023-01-13T21:35:27.825Z,15.30
2023-01-13T21:37:54.556Z,13.13
2023-01-13T21:40:21.595Z,12.23
2023-01-13T21:43:06.840Z,14.88
2023-01-13T21:45:52.151Z,18.77
2023-01-13T21:48:18.854Z,11.55
2023-01-13T21:50:45.592Z,14.07
2023-01-13T21:53:12.283Z,23.48
2023-01-13T21:55:39.096Z,18.58
2023-01-13T21:58:15.037Z,12.43
2023-01-13T22:00:43.815Z,13.10
2023-01-13T22:03:12.546Z,21.60
2023-01-13T22:05:40.150Z,20.40
2023-01-13T22:08:07.355Z,12.77
2023-01-13T22:10:34.337Z,15.95
2023-01-13T22:13:21.753Z,14.25
2023-01-13T22:15:48.500Z,16.55
2023-01-13T22:18:15.247Z,24.42
2023-01-13T22:20:42.093Z,19.17
2023-01-13T22:23:08.805Z,20.35
2023-01-13T22:25:35.533Z,18.13
2023-01-13T22:28:03.539Z,20.25
2023-01-13T22:30:32.395Z,18.35
2023-01-13T22:32:59.748Z,18.08
2023-01-13T22:35:26.637Z,15.43
2023-01-13T22:37:53.334Z,17.80
2023-01-13T22:40:20.087Z,14.13
2023-01-13T22:42:46.756Z,28.00
2023-01-13T22:45:14.260Z,10.82
2023-01-13T22:47:41.200Z,19.85
2023-01-13T22:50:09.351Z,19.83
2023-01-13T22:52:36.416Z,16.98
2023-01-13T22:55:04.258Z,17.23
2023-01-13T22:57:46.460Z,14.95
2023-01-13T23:02:41.629Z,15.13
2023-01-13T23:05:08.675Z,15.80
2023-01-13T23:07:36.056Z,10.85
2023-01-13T23:10:03.855Z,13.48
2023-01-13T23:12:30.603Z,25.55
2023-01-13T23:14:57.430Z,20.10
2023-01-13T23:17:24.148Z,21.58
2023-01-13T23:19:50.885Z,24.55
2023-01-13T23:22:17.608Z,13.57
2023-01-13T23:24:44.505Z,18.48
2023-01-13T23:27:11.243Z,10.65
2023-01-13T23:29:38.071Z,19.65
2023-01-13T23:32:05.345Z,13.15
2023-01-13T23:34:32.064Z,14.13
2023-01-13T23:36:58.856Z,18.42
2023-01-13T23:39:25.703Z,12.57
2023-01-13T23:41:52.440Z,10.43
2023-01-13T23:44:19.195Z,22.48
2023-01-13T23:46:45.919Z,10.73
2023-01-13T23:49:12.627Z,18.67
2023-01-13T23:51:39.554Z,13.55
2023-01-13T23:54:06.409Z,13.57
2023-01-13T23:56:34.712Z,17.25
2023-01-13T23:59:01.411Z,16.27
